sensor_id;sensor_type;location;lat;lon;timestamp;P1;durP1;ratioP1;P2;durP2;ratioP2
13252;SDS011;6693;54.370;10.132;2022-08-03T00:01:14;6.68;;;6.10;;
13252;SDS011;6693;54.370;10.132;2022-08-03T00:03:16;5.78;;;5.38;;
13252;SDS011;6693;54.370;10.132;2022-08-03T00:05:17;6.25;;;5.75;;
13252;SDS011;6693;54.370;10.132;2022-08-03T00:07:20;6.32;;;5.72;;
13252;SDS011;6693;54.370;10.132;2022-08-03T00:09:21;5.95;;;5.45;;
13252;SDS011;6693;54.370;10.132;2022-08-03T00:11:23;5.63;;;5.20;;
13252;SDS011;6693;54.370;10.132;2022-08-03T00:13:25;5.47;;;4.97;;
13252;SDS011;6693;54.370;10.132;2022-08-03T00:15:27;6.85;;;5.40;;
13252;SDS011;6693;54.370;10.132;2022-08-03T00:17:28;5.90;;;5.45;;
13252;SDS011;6693;54.370;10.132;2022-08-03T00:19:30;5.22;;;4.82;;
13252;SDS011;6693;54.370;10.132;2022-08-03T00:21:32;5.63;;;5.18;;
13252;SDS011;6693;54.370;10.132;2022-08-03T00:23:35;5.28;;;4.88;;
13252;SDS011;6693;54.370;10.132;2022-08-03T00:25:36;6.13;;;5.13;;
13252;SDS011;6693;54.370;10.132;2022-08-03T00:27:38;5.43;;;5.03;;
13252;SDS011;6693;54.370;10.132;2022-08-03T00:29:40;5.22;;;4.60;;
13252;SDS011;6693;54.370;10.132;2022-08-03T00:31:41;6.38;;;5.22;;
13252;SDS011;6693;54.370;10.132;2022-08-03T00:33:43;5.15;;;4.60;;
13252;SDS011;6693;54.370;10.132;2022-08-03T00:35:45;5.35;;;4.80;;
13252;SDS011;6693;54.370;10.132;2022-08-03T00:37:46;6.35;;;4.63;;
13252;SDS011;6693;54.370;10.132;2022-08-03T00:39:49;4.47;;;4.18;;
13252;SDS011;6693;54.370;10.132;2022-08-03T00:41:51;5.75;;;4.50;;
13252;SDS011;6693;54.370;10.132;2022-08-03T00:43:53;4.85;;;4.45;;
13252;SDS011;6693;54.370;10.132;2022-08-03T00:45:54;4.90;;;4.50;;
13252;SDS011;6693;54.370;10.132;2022-08-03T00:47:56;5.22;;;4.82;;
13252;SDS011;6693;54.370;10.132;2022-08-03T00:49:58;5.88;;;5.38;;
13252;SDS011;6693;54.370;10.132;2022-08-03T00:52:00;5.82;;;5.22;;
13252;SDS011;6693;54.370;10.132;2022-08-03T00:54:02;5.68;;;5.18;;
13252;SDS011;6693;54.370;10.132;2022-08-03T00:56:05;5.68;;;5.28;;
13252;SDS011;6693;54.370;10.132;2022-08-03T00:58:07;5.85;;;5.35;;
13252;SDS011;6693;54.370;10.132;2022-08-03T01:00:11;5.43;;;4.85;;
13252;SDS011;6693;54.370;10.132;2022-08-03T01:02:15;5.90;;;5.40;;
13252;SDS011;6693;54.370;10.132;2022-08-03T01:04:16;5.85;;;5.22;;
13252;SDS011;6693;54.370;10.132;2022-08-03T01:06:19;6.15;;;5.55;;
13252;SDS011;6693;54.370;10.132;2022-08-03T01:08:34;5.90;;;5.40;;
13252;SDS011;6693;54.370;10.132;2022-08-03T01:10:45;5.45;;;4.95;;
13252;SDS011;6693;54.370;10.132;2022-08-03T01:12:56;5.70;;;5.10;;
13252;SDS011;6693;54.370;10.132;2022-08-03T01:15:17;5.78;;;5.28;;
13252;SDS011;6693;54.370;10.132;2022-08-03T01:17:27;5.65;;;4.88;;
13252;SDS011;6693;54.370;10.132;2022-08-03T01:19:40;5.28;;;4.88;;
13252;SDS011;6693;54.370;10.132;2022-08-03T01:21:48;7.57;;;5.38;;
13252;SDS011;6693;54.370;10.132;2022-08-03T01:24:04;6.05;;;5.45;;
13252;SDS011;6693;54.370;10.132;2022-08-03T01:26:26;5.40;;;4.90;;
13252;SDS011;6693;54.370;10.132;2022-08-03T01:28:54;5.28;;;4.80;;
13252;SDS011;6693;54.370;10.132;2022-08-03T01:31:04;6.30;;;5.25;;
13252;SDS011;6693;54.370;10.132;2022-08-03T01:33:08;5.88;;;4.55;;
13252;SDS011;6693;54.370;10.132;2022-08-03T01:35:16;6.03;;;5.30;;
13252;SDS011;6693;54.370;10.132;2022-08-03T01:37:23;5.40;;;4.85;;
13252;SDS011;6693;54.370;10.132;2022-08-03T01:39:29;5.13;;;4.63;;
13252;SDS011;6693;54.370;10.132;2022-08-03T01:41:36;5.40;;;4.90;;
13252;SDS011;6693;54.370;10.132;2022-08-03T01:43:43;5.10;;;4.38;;
13252;SDS011;6693;54.370;10.132;2022-08-03T01:45:49;6.40;;;5.30;;
13252;SDS011;6693;54.370;10.132;2022-08-03T01:47:55;5.45;;;4.95;;
13252;SDS011;6693;54.370;10.132;2022-08-03T01:49:59;5.60;;;5.20;;
13252;SDS011;6693;54.370;10.132;2022-08-03T01:52:03;6.30;;;5.70;;
13252;SDS011;6693;54.370;10.132;2022-08-03T01:54:06;5.60;;;5.13;;
13252;SDS011;6693;54.370;10.132;2022-08-03T01:56:10;7.70;;;5.78;;
13252;SDS011;6693;54.370;10.132;2022-08-03T01:58:14;6.57;;;5.60;;
13252;SDS011;6693;54.370;10.132;2022-08-03T02:00:17;6.35;;;5.85;;
13252;SDS011;6693;54.370;10.132;2022-08-03T02:02:19;8.60;;;6.00;;
13252;SDS011;6693;54.370;10.132;2022-08-03T02:04:23;6.40;;;5.78;;
13252;SDS011;6693;54.370;10.132;2022-08-03T02:06:28;6.05;;;5.53;;
13252;SDS011;6693;54.370;10.132;2022-08-03T02:08:32;6.15;;;5.57;;
13252;SDS011;6693;54.370;10.132;2022-08-03T02:10:35;6.53;;;5.93;;
13252;SDS011;6693;54.370;10.132;2022-08-03T02:12:39;6.47;;;5.88;;
13252;SDS011;6693;54.370;10.132;2022-08-03T02:14:44;7.55;;;5.97;;
13252;SDS011;6693;54.370;10.132;2022-08-03T02:16:48;6.93;;;6.05;;
13252;SDS011;6693;54.370;10.132;2022-08-03T02:18:51;6.30;;;5.75;;
13252;SDS011;6693;54.370;10.132;2022-08-03T02:20:55;5.95;;;5.45;;
13252;SDS011;6693;54.370;10.132;2022-08-03T02:22:57;6.32;;;5.32;;
13252;SDS011;6693;54.370;10.132;2022-08-03T02:24:59;5.50;;;5.10;;
13252;SDS011;6693;54.370;10.132;2022-08-03T02:27:02;6.65;;;6.07;;
13252;SDS011;6693;54.370;10.132;2022-08-03T02:29:10;7.18;;;6.65;;
13252;SDS011;6693;54.370;10.132;2022-08-03T02:31:15;7.00;;;6.38;;
13252;SDS011;6693;54.370;10.132;2022-08-03T02:33:21;7.97;;;7.28;;
13252;SDS011;6693;54.370;10.132;2022-08-03T02:35:27;8.18;;;7.55;;
13252;SDS011;6693;54.370;10.132;2022-08-03T02:37:33;7.28;;;6.68;;
13252;SDS011;6693;54.370;10.132;2022-08-03T02:39:39;6.55;;;5.95;;
13252;SDS011;6693;54.370;10.132;2022-08-03T02:41:42;7.07;;;6.15;;
13252;SDS011;6693;54.370;10.132;2022-08-03T02:43:47;7.30;;;6.38;;
13252;SDS011;6693;54.370;10.132;2022-08-03T02:45:51;6.68;;;6.07;;
13252;SDS011;6693;54.370;10.132;2022-08-03T02:47:55;6.53;;;5.97;;
13252;SDS011;6693;54.370;10.132;2022-08-03T02:50:01;7.15;;;6.45;;
13252;SDS011;6693;54.370;10.132;2022-08-03T02:52:03;7.63;;;6.93;;
13252;SDS011;6693;54.370;10.132;2022-08-03T02:54:10;7.07;;;6.50;;
13252;SDS011;6693;54.370;10.132;2022-08-03T02:56:15;7.75;;;6.90;;
13252;SDS011;6693;54.370;10.132;2022-08-03T02:58:18;7.80;;;7.10;;
13252;SDS011;6693;54.370;10.132;2022-08-03T03:00:22;7.55;;;6.95;;
13252;SDS011;6693;54.370;10.132;2022-08-03T03:02:25;7.60;;;6.90;;
13252;SDS011;6693;54.370;10.132;2022-08-03T03:04:28;8.18;;;7.47;;
13252;SDS011;6693;54.370;10.132;2022-08-03T03:06:31;7.97;;;7.30;;
13252;SDS011;6693;54.370;10.132;2022-08-03T03:08:33;9.40;;;8.50;;
13252;SDS011;6693;54.370;10.132;2022-08-03T03:10:36;8.00;;;7.30;;
13252;SDS011;6693;54.370;10.132;2022-08-03T03:12:38;8.43;;;7.65;;
13252;SDS011;6693;54.370;10.132;2022-08-03T03:14:41;8.48;;;7.78;;
13252;SDS011;6693;54.370;10.132;2022-08-03T03:16:43;8.90;;;8.00;;
13252;SDS011;6693;54.370;10.132;2022-08-03T03:18:46;8.43;;;7.72;;
13252;SDS011;6693;54.370;10.132;2022-08-03T03:20:50;8.90;;;8.07;;
13252;SDS011;6693;54.370;10.132;2022-08-03T03:22:53;9.35;;;8.60;;
13252;SDS011;6693;54.370;10.132;2022-08-03T03:24:55;9.65;;;8.80;;
13252;SDS011;6693;54.370;10.132;2022-08-03T03:26:59;9.00;;;8.20;;
13252;SDS011;6693;54.370;10.132;2022-08-03T03:29:01;9.23;;;8.32;;
13252;SDS011;6693;54.370;10.132;2022-08-03T03:31:04;9.27;;;8.32;;
13252;SDS011;6693;54.370;10.132;2022-08-03T03:33:06;9.35;;;8.48;;
13252;SDS011;6693;54.370;10.132;2022-08-03T03:35:08;9.88;;;8.88;;
13252;SDS011;6693;54.370;10.132;2022-08-03T03:37:11;8.82;;;8.10;;
13252;SDS011;6693;54.370;10.132;2022-08-03T03:39:13;9.45;;;8.55;;
13252;SDS011;6693;54.370;10.132;2022-08-03T03:41:14;10.38;;;9.57;;
13252;SDS011;6693;54.370;10.132;2022-08-03T03:43:17;9.63;;;8.80;;
13252;SDS011;6693;54.370;10.132;2022-08-03T03:45:19;10.38;;;9.30;;
13252;SDS011;6693;54.370;10.132;2022-08-03T03:47:22;10.23;;;9.43;;
13252;SDS011;6693;54.370;10.132;2022-08-03T03:49:24;9.65;;;8.88;;
13252;SDS011;6693;54.370;10.132;2022-08-03T03:51:26;10.15;;;9.25;;
13252;SDS011;6693;54.370;10.132;2022-08-03T03:53:28;9.98;;;9.15;;
13252;SDS011;6693;54.370;10.132;2022-08-03T03:55:29;10.05;;;9.15;;
13252;SDS011;6693;54.370;10.132;2022-08-03T03:57:32;9.85;;;9.05;;
13252;SDS011;6693;54.370;10.132;2022-08-03T03:59:37;9.70;;;8.95;;
13252;SDS011;6693;54.370;10.132;2022-08-03T04:01:39;9.55;;;8.75;;
13252;SDS011;6693;54.370;10.132;2022-08-03T04:03:41;9.82;;;8.93;;
13252;SDS011;6693;54.370;10.132;2022-08-03T04:05:43;9.90;;;9.00;;
13252;SDS011;6693;54.370;10.132;2022-08-03T04:08:04;10.43;;;9.43;;
13252;SDS011;6693;54.370;10.132;2022-08-03T04:10:25;10.18;;;9.32;;
13252;SDS011;6693;54.370;10.132;2022-08-03T04:12:47;11.07;;;9.95;;
13252;SDS011;6693;54.370;10.132;2022-08-03T04:14:52;10.80;;;9.90;;
13252;SDS011;6693;54.370;10.132;2022-08-03T04:16:58;10.65;;;9.75;;
13252;SDS011;6693;54.370;10.132;2022-08-03T04:19:03;9.77;;;8.98;;
13252;SDS011;6693;54.370;10.132;2022-08-03T04:21:08;10.50;;;9.10;;
13252;SDS011;6693;54.370;10.132;2022-08-03T04:23:12;9.95;;;9.15;;
13252;SDS011;6693;54.370;10.132;2022-08-03T04:25:16;9.63;;;8.82;;
13252;SDS011;6693;54.370;10.132;2022-08-03T04:27:20;10.07;;;9.27;;
13252;SDS011;6693;54.370;10.132;2022-08-03T04:29:25;10.23;;;9.32;;
13252;SDS011;6693;54.370;10.132;2022-08-03T04:31:32;9.98;;;9.10;;
13252;SDS011;6693;54.370;10.132;2022-08-03T04:33:36;9.52;;;8.80;;
13252;SDS011;6693;54.370;10.132;2022-08-03T04:35:39;10.35;;;9.38;;
13252;SDS011;6693;54.370;10.132;2022-08-03T04:37:43;10.02;;;9.18;;
13252;SDS011;6693;54.370;10.132;2022-08-03T04:39:48;10.10;;;9.15;;
13252;SDS011;6693;54.370;10.132;2022-08-03T04:41:53;10.43;;;9.43;;
13252;SDS011;6693;54.370;10.132;2022-08-03T04:43:57;9.88;;;9.07;;
13252;SDS011;6693;54.370;10.132;2022-08-03T04:46:00;10.23;;;9.32;;
13252;SDS011;6693;54.370;10.132;2022-08-03T04:48:05;9.88;;;8.98;;
13252;SDS011;6693;54.370;10.132;2022-08-03T04:50:08;9.15;;;8.32;;
13252;SDS011;6693;54.370;10.132;2022-08-03T04:52:10;9.88;;;8.98;;
13252;SDS011;6693;54.370;10.132;2022-08-03T04:54:12;9.48;;;8.77;;
13252;SDS011;6693;54.370;10.132;2022-08-03T04:56:15;9.27;;;8.57;;
13252;SDS011;6693;54.370;10.132;2022-08-03T04:58:16;10.77;;;8.80;;
13252;SDS011;6693;54.370;10.132;2022-08-03T05:00:18;10.63;;;9.73;;
13252;SDS011;6693;54.370;10.132;2022-08-03T05:02:21;9.93;;;9.07;;
13252;SDS011;6693;54.370;10.132;2022-08-03T05:04:24;9.68;;;8.88;;
13252;SDS011;6693;54.370;10.132;2022-08-03T05:06:26;9.45;;;8.68;;
13252;SDS011;6693;54.370;10.132;2022-08-03T05:08:27;9.60;;;8.70;;
13252;SDS011;6693;54.370;10.132;2022-08-03T05:10:29;10.23;;;9.18;;
13252;SDS011;6693;54.370;10.132;2022-08-03T05:12:31;10.20;;;8.40;;
13252;SDS011;6693;54.370;10.132;2022-08-03T05:14:32;9.25;;;8.50;;
13252;SDS011;6693;54.370;10.132;2022-08-03T05:16:36;8.73;;;7.93;;
13252;SDS011;6693;54.370;10.132;2022-08-03T05:18:38;9.30;;;8.40;;
13252;SDS011;6693;54.370;10.132;2022-08-03T05:20:41;9.30;;;8.50;;
13252;SDS011;6693;54.370;10.132;2022-08-03T05:22:43;9.40;;;8.50;;
13252;SDS011;6693;54.370;10.132;2022-08-03T05:24:44;9.02;;;8.32;;
13252;SDS011;6693;54.370;10.132;2022-08-03T05:26:46;9.15;;;8.35;;
13252;SDS011;6693;54.370;10.132;2022-08-03T05:28:47;8.63;;;7.93;;
13252;SDS011;6693;54.370;10.132;2022-08-03T05:30:49;9.27;;;8.48;;
13252;SDS011;6693;54.370;10.132;2022-08-03T05:32:51;9.27;;;8.50;;
13252;SDS011;6693;54.370;10.132;2022-08-03T05:34:53;9.90;;;9.00;;
13252;SDS011;6693;54.370;10.132;2022-08-03T05:36:56;9.75;;;8.60;;
13252;SDS011;6693;54.370;10.132;2022-08-03T05:38:58;9.48;;;8.50;;
13252;SDS011;6693;54.370;10.132;2022-08-03T05:40:59;9.45;;;8.52;;
13252;SDS011;6693;54.370;10.132;2022-08-03T05:43:01;9.05;;;8.23;;
13252;SDS011;6693;54.370;10.132;2022-08-03T05:45:03;9.10;;;8.23;;
13252;SDS011;6693;54.370;10.132;2022-08-03T05:47:13;9.38;;;8.23;;
13252;SDS011;6693;54.370;10.132;2022-08-03T05:49:15;9.68;;;8.68;;
13252;SDS011;6693;54.370;10.132;2022-08-03T05:51:17;9.25;;;8.35;;
13252;SDS011;6693;54.370;10.132;2022-08-03T05:53:20;8.57;;;7.88;;
13252;SDS011;6693;54.370;10.132;2022-08-03T05:55:21;8.80;;;7.93;;
13252;SDS011;6693;54.370;10.132;2022-08-03T05:57:23;9.10;;;8.20;;
13252;SDS011;6693;54.370;10.132;2022-08-03T05:59:25;8.75;;;8.02;;
13252;SDS011;6693;54.370;10.132;2022-08-03T06:01:27;8.18;;;7.38;;
13252;SDS011;6693;54.370;10.132;2022-08-03T06:03:30;8.68;;;7.82;;
13252;SDS011;6693;54.370;10.132;2022-08-03T06:05:32;7.90;;;7.20;;
13252;SDS011;6693;54.370;10.132;2022-08-03T06:07:35;7.97;;;7.22;;
13252;SDS011;6693;54.370;10.132;2022-08-03T06:09:38;7.93;;;7.22;;
13252;SDS011;6693;54.370;10.132;2022-08-03T06:11:40;8.00;;;7.30;;
13252;SDS011;6693;54.370;10.132;2022-08-03T06:13:42;10.40;;;9.30;;
13252;SDS011;6693;54.370;10.132;2022-08-03T06:15:44;10.75;;;9.75;;
13252;SDS011;6693;54.370;10.132;2022-08-03T06:17:46;7.78;;;7.05;;
13252;SDS011;6693;54.370;10.132;2022-08-03T06:19:53;7.20;;;6.63;;
13252;SDS011;6693;54.370;10.132;2022-08-03T06:21:54;6.78;;;6.13;;
13252;SDS011;6693;54.370;10.132;2022-08-03T06:23:57;6.47;;;5.90;;
13252;SDS011;6693;54.370;10.132;2022-08-03T06:26:00;7.03;;;6.43;;
13252;SDS011;6693;54.370;10.132;2022-08-03T06:28:02;6.63;;;5.95;;
13252;SDS011;6693;54.370;10.132;2022-08-03T06:30:04;7.35;;;5.93;;
13252;SDS011;6693;54.370;10.132;2022-08-03T06:32:07;6.50;;;5.90;;
13252;SDS011;6693;54.370;10.132;2022-08-03T06:34:09;5.38;;;4.93;;
13252;SDS011;6693;54.370;10.132;2022-08-03T06:36:11;5.60;;;5.10;;
13252;SDS011;6693;54.370;10.132;2022-08-03T06:38:12;5.57;;;5.07;;
13252;SDS011;6693;54.370;10.132;2022-08-03T06:40:15;6.28;;;5.15;;
13252;SDS011;6693;54.370;10.132;2022-08-03T06:42:19;4.55;;;4.25;;
13252;SDS011;6693;54.370;10.132;2022-08-03T06:44:22;5.60;;;5.00;;
13252;SDS011;6693;54.370;10.132;2022-08-03T06:46:23;5.60;;;5.00;;
13252;SDS011;6693;54.370;10.132;2022-08-03T06:48:25;5.57;;;5.07;;
13252;SDS011;6693;54.370;10.132;2022-08-03T06:50:27;4.65;;;4.32;;
13252;SDS011;6693;54.370;10.132;2022-08-03T06:52:29;5.57;;;4.63;;
13252;SDS011;6693;54.370;10.132;2022-08-03T06:54:30;5.30;;;4.53;;
13252;SDS011;6693;54.370;10.132;2022-08-03T06:56:32;5.50;;;3.95;;
13252;SDS011;6693;54.370;10.132;2022-08-03T06:58:35;4.53;;;4.03;;
13252;SDS011;6693;54.370;10.132;2022-08-03T07:00:37;5.65;;;4.53;;
13252;SDS011;6693;54.370;10.132;2022-08-03T07:02:39;5.82;;;4.28;;
13252;SDS011;6693;54.370;10.132;2022-08-03T07:04:40;4.65;;;4.25;;
13252;SDS011;6693;54.370;10.132;2022-08-03T07:06:42;6.55;;;4.03;;
13252;SDS011;6693;54.370;10.132;2022-08-03T07:08:44;5.45;;;4.28;;
13252;SDS011;6693;54.370;10.132;2022-08-03T07:10:45;4.85;;;4.15;;
13252;SDS011;6693;54.370;10.132;2022-08-03T07:12:47;4.75;;;4.20;;
13252;SDS011;6693;54.370;10.132;2022-08-03T07:14:50;4.65;;;4.00;;
13252;SDS011;6693;54.370;10.132;2022-08-03T07:16:52;4.28;;;3.78;;
13252;SDS011;6693;54.370;10.132;2022-08-03T07:18:54;6.85;;;4.28;;
13252;SDS011;6693;54.370;10.132;2022-08-03T07:20:55;5.28;;;4.75;;
13252;SDS011;6693;54.370;10.132;2022-08-03T07:22:57;5.43;;;4.07;;
13252;SDS011;6693;54.370;10.132;2022-08-03T07:24:59;4.05;;;3.65;;
13252;SDS011;6693;54.370;10.132;2022-08-03T07:27:01;5.75;;;3.60;;
13252;SDS011;6693;54.370;10.132;2022-08-03T07:29:02;4.18;;;3.50;;
13252;SDS011;6693;54.370;10.132;2022-08-03T07:31:05;5.22;;;3.67;;
13252;SDS011;6693;54.370;10.132;2022-08-03T07:33:07;3.97;;;3.58;;
13252;SDS011;6693;54.370;10.132;2022-08-03T07:35:09;7.55;;;3.95;;
13252;SDS011;6693;54.370;10.132;2022-08-03T07:37:11;4.80;;;3.90;;
13252;SDS011;6693;54.370;10.132;2022-08-03T07:39:13;4.55;;;3.17;;
13252;SDS011;6693;54.370;10.132;2022-08-03T07:41:15;3.47;;;3.17;;
13252;SDS011;6693;54.370;10.132;2022-08-03T07:43:16;4.50;;;3.40;;
13252;SDS011;6693;54.370;10.132;2022-08-03T07:45:18;4.00;;;3.60;;
13252;SDS011;6693;54.370;10.132;2022-08-03T07:47:24;4.18;;;3.47;;
13252;SDS011;6693;54.370;10.132;2022-08-03T07:49:27;5.28;;;3.30;;
13252;SDS011;6693;54.370;10.132;2022-08-03T07:51:28;5.03;;;3.10;;
13252;SDS011;6693;54.370;10.132;2022-08-03T07:53:30;4.00;;;3.42;;
13252;SDS011;6693;54.370;10.132;2022-08-03T07:55:32;3.80;;;3.38;;
13252;SDS011;6693;54.370;10.132;2022-08-03T07:57:34;3.75;;;3.40;;
13252;SDS011;6693;54.370;10.132;2022-08-03T07:59:36;3.55;;;3.25;;
13252;SDS011;6693;54.370;10.132;2022-08-03T08:01:38;3.47;;;3.17;;
13252;SDS011;6693;54.370;10.132;2022-08-03T08:03:41;5.70;;;3.78;;
13252;SDS011;6693;54.370;10.132;2022-08-03T08:05:43;3.47;;;3.17;;
13252;SDS011;6693;54.370;10.132;2022-08-03T08:07:44;3.50;;;3.20;;
13252;SDS011;6693;54.370;10.132;2022-08-03T08:09:46;3.40;;;3.10;;
13252;SDS011;6693;54.370;10.132;2022-08-03T08:11:48;3.75;;;3.10;;
13252;SDS011;6693;54.370;10.132;2022-08-03T08:13:50;3.55;;;3.25;;
13252;SDS011;6693;54.370;10.132;2022-08-03T08:15:51;4.50;;;3.75;;
13252;SDS011;6693;54.370;10.132;2022-08-03T08:17:53;3.35;;;3.05;;
13252;SDS011;6693;54.370;10.132;2022-08-03T08:19:58;4.30;;;2.85;;
13252;SDS011;6693;54.370;10.132;2022-08-03T08:22:00;4.40;;;3.25;;
13252;SDS011;6693;54.370;10.132;2022-08-03T08:24:01;4.28;;;3.88;;
13252;SDS011;6693;54.370;10.132;2022-08-03T08:26:03;5.55;;;4.07;;
13252;SDS011;6693;54.370;10.132;2022-08-03T08:28:05;5.20;;;4.45;;
13252;SDS011;6693;54.370;10.132;2022-08-03T08:30:07;4.15;;;3.78;;
13252;SDS011;6693;54.370;10.132;2022-08-03T08:32:09;4.13;;;3.83;;
13252;SDS011;6693;54.370;10.132;2022-08-03T08:34:13;6.22;;;4.20;;
13252;SDS011;6693;54.370;10.132;2022-08-03T08:36:16;4.00;;;3.55;;
13252;SDS011;6693;54.370;10.132;2022-08-03T08:38:18;4.03;;;3.65;;
13252;SDS011;6693;54.370;10.132;2022-08-03T08:40:20;4.13;;;3.72;;
13252;SDS011;6693;54.370;10.132;2022-08-03T08:42:23;3.80;;;3.50;;
13252;SDS011;6693;54.370;10.132;2022-08-03T08:44:25;4.05;;;2.97;;
13252;SDS011;6693;54.370;10.132;2022-08-03T08:46:27;4.30;;;3.90;;
13252;SDS011;6693;54.370;10.132;2022-08-03T08:48:32;3.40;;;3.10;;
13252;SDS011;6693;54.370;10.132;2022-08-03T08:50:40;4.90;;;3.30;;
13252;SDS011;6693;54.370;10.132;2022-08-03T08:52:45;5.25;;;4.00;;
13252;SDS011;6693;54.370;10.132;2022-08-03T08:54:47;4.20;;;3.80;;
13252;SDS011;6693;54.370;10.132;2022-08-03T08:56:50;3.95;;;3.58;;
13252;SDS011;6693;54.370;10.132;2022-08-03T08:58:55;4.00;;;3.58;;
13252;SDS011;6693;54.370;10.132;2022-08-03T09:00:59;4.18;;;3.60;;
13252;SDS011;6693;54.370;10.132;2022-08-03T09:03:00;4.15;;;3.75;;
13252;SDS011;6693;54.370;10.132;2022-08-03T09:05:02;3.83;;;3.53;;
13252;SDS011;6693;54.370;10.132;2022-08-03T09:07:04;4.80;;;3.45;;
13252;SDS011;6693;54.370;10.132;2022-08-03T09:09:08;3.58;;;3.20;;
13252;SDS011;6693;54.370;10.132;2022-08-03T09:11:10;3.03;;;2.80;;
13252;SDS011;6693;54.370;10.132;2022-08-03T09:13:12;3.70;;;3.40;;
13252;SDS011;6693;54.370;10.132;2022-08-03T09:15:18;4.38;;;3.03;;
13252;SDS011;6693;54.370;10.132;2022-08-03T09:17:21;4.50;;;3.00;;
13252;SDS011;6693;54.370;10.132;2022-08-03T09:19:23;7.15;;;3.08;;
13252;SDS011;6693;54.370;10.132;2022-08-03T09:21:25;3.17;;;2.63;;
13252;SDS011;6693;54.370;10.132;2022-08-03T09:23:29;5.88;;;2.90;;
13252;SDS011;6693;54.370;10.132;2022-08-03T09:25:45;5.65;;;3.00;;
13252;SDS011;6693;54.370;10.132;2022-08-03T09:27:47;3.90;;;3.03;;
13252;SDS011;6693;54.370;10.132;2022-08-03T09:29:49;2.75;;;2.53;;
13252;SDS011;6693;54.370;10.132;2022-08-03T09:31:58;8.27;;;3.35;;
13252;SDS011;6693;54.370;10.132;2022-08-03T09:34:02;3.20;;;2.90;;
13252;SDS011;6693;54.370;10.132;2022-08-03T09:36:05;3.22;;;2.90;;
13252;SDS011;6693;54.370;10.132;2022-08-03T09:38:07;2.58;;;2.38;;
13252;SDS011;6693;54.370;10.132;2022-08-03T09:40:09;4.82;;;2.67;;
13252;SDS011;6693;54.370;10.132;2022-08-03T09:42:33;4.43;;;2.70;;
13252;SDS011;6693;54.370;10.132;2022-08-03T09:44:37;4.07;;;2.65;;
13252;SDS011;6693;54.370;10.132;2022-08-03T09:46:46;5.30;;;2.42;;
13252;SDS011;6693;54.370;10.132;2022-08-03T09:48:49;6.18;;;3.00;;
13252;SDS011;6693;54.370;10.132;2022-08-03T09:50:51;3.45;;;2.70;;
13252;SDS011;6693;54.370;10.132;2022-08-03T09:52:53;5.50;;;2.55;;
13252;SDS011;6693;54.370;10.132;2022-08-03T09:55:06;3.05;;;2.58;;
13252;SDS011;6693;54.370;10.132;2022-08-03T09:57:18;5.18;;;2.55;;
13252;SDS011;6693;54.370;10.132;2022-08-03T09:59:24;5.50;;;2.83;;
13252;SDS011;6693;54.370;10.132;2022-08-03T10:01:31;6.40;;;3.05;;
13252;SDS011;6693;54.370;10.132;2022-08-03T10:03:34;3.80;;;2.95;;
13252;SDS011;6693;54.370;10.132;2022-08-03T10:05:37;5.50;;;2.78;;
13252;SDS011;6693;54.370;10.132;2022-08-03T10:07:44;3.20;;;2.58;;
13252;SDS011;6693;54.370;10.132;2022-08-03T10:09:53;5.82;;;2.80;;
13252;SDS011;6693;54.370;10.132;2022-08-03T10:11:56;3.50;;;2.10;;
13252;SDS011;6693;54.370;10.132;2022-08-03T10:14:07;4.13;;;2.05;;
13252;SDS011;6693;54.370;10.132;2022-08-03T10:16:11;2.53;;;2.05;;
13252;SDS011;6693;54.370;10.132;2022-08-03T10:18:14;5.78;;;2.53;;
13252;SDS011;6693;54.370;10.132;2022-08-03T10:20:16;3.17;;;2.22;;
13252;SDS011;6693;54.370;10.132;2022-08-03T10:22:20;4.22;;;2.55;;
13252;SDS011;6693;54.370;10.132;2022-08-03T10:24:24;2.75;;;2.50;;
13252;SDS011;6693;54.370;10.132;2022-08-03T10:26:27;3.47;;;2.10;;
13252;SDS011;6693;54.370;10.132;2022-08-03T10:28:33;3.25;;;2.35;;
13252;SDS011;6693;54.370;10.132;2022-08-03T10:30:36;2.92;;;2.60;;
13252;SDS011;6693;54.370;10.132;2022-08-03T10:32:43;3.13;;;2.30;;
13252;SDS011;6693;54.370;10.132;2022-08-03T10:34:49;3.17;;;2.33;;
13252;SDS011;6693;54.370;10.132;2022-08-03T10:36:54;3.80;;;2.58;;
13252;SDS011;6693;54.370;10.132;2022-08-03T10:38:58;3.42;;;2.60;;
13252;SDS011;6693;54.370;10.132;2022-08-03T10:41:01;4.22;;;2.60;;
13252;SDS011;6693;54.370;10.132;2022-08-03T10:43:05;5.97;;;2.55;;
13252;SDS011;6693;54.370;10.132;2022-08-03T10:45:12;5.10;;;2.55;;
13252;SDS011;6693;54.370;10.132;2022-08-03T10:47:18;4.78;;;2.47;;
13252;SDS011;6693;54.370;10.132;2022-08-03T10:49:21;4.20;;;2.65;;
13252;SDS011;6693;54.370;10.132;2022-08-03T10:51:23;2.28;;;2.08;;
13252;SDS011;6693;54.370;10.132;2022-08-03T10:53:32;3.45;;;2.83;;
13252;SDS011;6693;54.370;10.132;2022-08-03T10:55:36;3.97;;;2.75;;
13252;SDS011;6693;54.370;10.132;2022-08-03T10:57:58;5.13;;;2.55;;
13252;SDS011;6693;54.370;10.132;2022-08-03T11:00:00;7.15;;;2.70;;
13252;SDS011;6693;54.370;10.132;2022-08-03T11:02:05;2.80;;;2.20;;
13252;SDS011;6693;54.370;10.132;2022-08-03T11:04:13;3.63;;;2.72;;
13252;SDS011;6693;54.370;10.132;2022-08-03T11:06:18;7.60;;;5.25;;
13252;SDS011;6693;54.370;10.132;2022-08-03T11:08:25;3.25;;;2.00;;
13252;SDS011;6693;54.370;10.132;2022-08-03T11:10:29;2.83;;;2.55;;
13252;SDS011;6693;54.370;10.132;2022-08-03T11:12:32;4.70;;;2.70;;
13252;SDS011;6693;54.370;10.132;2022-08-03T11:14:43;2.80;;;2.30;;
13252;SDS011;6693;54.370;10.132;2022-08-03T11:16:47;3.15;;;2.35;;
13252;SDS011;6693;54.370;10.132;2022-08-03T11:18:55;4.20;;;2.47;;
13252;SDS011;6693;54.370;10.132;2022-08-03T11:20:58;3.83;;;2.25;;
13252;SDS011;6693;54.370;10.132;2022-08-03T11:23:01;4.38;;;2.78;;
13252;SDS011;6693;54.370;10.132;2022-08-03T11:25:03;3.30;;;2.08;;
13252;SDS011;6693;54.370;10.132;2022-08-03T11:27:15;6.43;;;2.65;;
13252;SDS011;6693;54.370;10.132;2022-08-03T11:29:25;3.33;;;2.13;;
13252;SDS011;6693;54.370;10.132;2022-08-03T11:31:44;5.03;;;2.42;;
13252;SDS011;6693;54.370;10.132;2022-08-03T11:34:01;3.55;;;2.50;;
13252;SDS011;6693;54.370;10.132;2022-08-03T11:36:04;5.68;;;2.53;;
13252;SDS011;6693;54.370;10.132;2022-08-03T11:38:07;4.22;;;2.55;;
13252;SDS011;6693;54.370;10.132;2022-08-03T11:40:12;4.03;;;2.50;;
13252;SDS011;6693;54.370;10.132;2022-08-03T11:42:42;3.92;;;2.97;;
13252;SDS011;6693;54.370;10.132;2022-08-03T11:44:47;4.93;;;2.17;;
13252;SDS011;6693;54.370;10.132;2022-08-03T11:46:50;4.90;;;2.20;;
13252;SDS011;6693;54.370;10.132;2022-08-03T11:48:52;5.00;;;2.45;;
13252;SDS011;6693;54.370;10.132;2022-08-03T11:50:58;2.60;;;1.88;;
13252;SDS011;6693;54.370;10.132;2022-08-03T11:53:00;5.78;;;3.05;;
13252;SDS011;6693;54.370;10.132;2022-08-03T11:55:03;7.07;;;2.25;;
13252;SDS011;6693;54.370;10.132;2022-08-03T11:57:13;6.50;;;2.55;;
13252;SDS011;6693;54.370;10.132;2022-08-03T11:59:30;3.00;;;2.00;;
13252;SDS011;6693;54.370;10.132;2022-08-03T12:01:32;3.53;;;1.65;;
13252;SDS011;6693;54.370;10.132;2022-08-03T12:03:34;5.03;;;2.28;;
13252;SDS011;6693;54.370;10.132;2022-08-03T12:05:40;4.97;;;2.60;;
13252;SDS011;6693;54.370;10.132;2022-08-03T12:07:47;6.03;;;3.03;;
13252;SDS011;6693;54.370;10.132;2022-08-03T12:12:17;6.45;;;2.60;;
13252;SDS011;6693;54.370;10.132;2022-08-03T12:14:19;9.02;;;3.88;;
13252;SDS011;6693;54.370;10.132;2022-08-03T12:16:21;6.30;;;2.90;;
13252;SDS011;6693;54.370;10.132;2022-08-03T12:18:24;7.78;;;2.80;;
13252;SDS011;6693;54.370;10.132;2022-08-03T12:20:27;9.52;;;2.80;;
13252;SDS011;6693;54.370;10.132;2022-08-03T12:22:31;7.38;;;2.70;;
13252;SDS011;6693;54.370;10.132;2022-08-03T12:24:38;8.43;;;2.95;;
13252;SDS011;6693;54.370;10.132;2022-08-03T12:26:42;6.97;;;2.75;;
13252;SDS011;6693;54.370;10.132;2022-08-03T12:28:47;8.68;;;2.58;;
13252;SDS011;6693;54.370;10.132;2022-08-03T12:30:50;9.95;;;3.33;;